Time;durP1;ratioP1;P1;durP2;ratioP2;P2;SDS_P1;SDS_P2;PMS_P1;PMS_P2;Temp;Humidity;BMP_temperature;BMP_pressure;BME280_temperature;BME280_humidity;BME280_pressure;Samples;Min_cycle;Max_cycle;Signal;HPM_P1;HPM_P2
2021/05/21 00:02:25;;;;;;;1175.63;999.90;;;;;;;;;;5022631;28;20034;-48
2021/05/21 00:04:51;;;;;;;1172.90;999.90;;;;;;;;;;5016861;28;20026;-48
2021/05/21 00:07:17;;;;;;;1172.93;999.90;;;;;;;;;;5011686;28;20034;-48
2021/05/21 00:09:43;;;;;;;1172.43;999.90;;;;;;;;;;5026903;28;20038;-47
2021/05/21 00:12:09;;;;;;;1173.05;999.90;;;;;;;;;;5023091;28;20042;-47
2021/05/21 00:14:36;;;;;;;1172.40;999.90;;;;;;;;;;5021836;28;20025;-48
2021/05/21 00:17:02;;;;;;;1172.10;999.90;;;;;;;;;;5019183;28;20034;-48
2021/05/21 00:19:27;;;;;;;1170.47;999.90;;;;;;;;;;5022401;28;20044;-48
2021/05/21 00:21:53;;;;;;;1172.70;999.90;;;;;;;;;;5020357;28;20036;-48
2021/05/21 00:24:19;;;;;;;1174.65;999.90;;;;;;;;;;5015245;28;20038;-49
2021/05/21 00:26:48;;;;;;;1179.28;999.90;;;;;;;;;;5016815;28;20499;-49
2021/05/21 00:29:14;;;;;;;1178.53;999.90;;;;;;;;;;5019465;28;20034;-48
2021/05/21 00:31:40;;;;;;;1195.25;999.90;;;;;;;;;;5017770;28;21312;-46
2021/05/21 00:34:06;;;;;;;1174.80;999.90;;;;;;;;;;5032884;28;20506;-47
2021/05/21 00:36:32;;;;;;;1190.78;999.90;;;;;;;;;;5025807;28;20037;-49
2021/05/21 00:38:58;;;;;;;1182.75;999.90;;;;;;;;;;5010912;28;20034;-49
2021/05/21 00:41:25;;;;;;;1192.43;999.90;;;;;;;;;;5025831;28;20040;-48
2021/05/21 00:43:52;;;;;;;1183.28;999.90;;;;;;;;;;5023767;28;20105;-49
2021/05/21 00:46:18;;;;;;;1173.65;999.90;;;;;;;;;;5020506;28;20034;-48
2021/05/21 00:48:44;;;;;;;1183.03;999.90;;;;;;;;;;5034042;28;20037;-50
2021/05/21 00:51:10;;;;;;;1174.22;999.90;;;;;;;;;;5014208;28;20108;-51
2021/05/21 00:53:38;;;;;;;1192.80;999.90;;;;;;;;;;5011452;28;20466;-48
2021/05/21 00:56:04;;;;;;;1199.38;999.90;;;;;;;;;;5010218;28;20542;-48
2021/05/21 00:58:31;;;;;;;1179.93;999.90;;;;;;;;;;5018641;28;20117;-50
2021/05/21 01:00:57;;;;;;;1173.20;999.90;;;;;;;;;;5015409;28;20121;-49
2021/05/21 01:03:23;;;;;;;1174.28;999.90;;;;;;;;;;5018333;28;20096;-48
2021/05/21 01:05:49;;;;;;;1173.38;999.90;;;;;;;;;;5018050;28;20045;-49
2021/05/21 01:08:16;;;;;;;1173.05;999.90;;;;;;;;;;5010862;28;20053;-47
2021/05/21 01:10:42;;;;;;;1178.00;999.90;;;;;;;;;;5012645;28;20482;-50
2021/05/21 01:13:08;;;;;;;1173.55;999.90;;;;;;;;;;5021623;28;20118;-50
2021/05/21 01:15:36;;;;;;;1174.80;999.90;;;;;;;;;;5012872;28;20056;-51
2021/05/21 01:18:02;;;;;;;1171.63;999.90;;;;;;;;;;5009455;28;20030;-48
2021/05/21 01:20:31;;;;;;;1171.32;999.90;;;;;;;;;;5021118;28;20032;-49
2021/05/21 01:22:57;;;;;;;1172.78;999.90;;;;;;;;;;5015421;28;20084;-47
2021/05/21 01:25:23;;;;;;;1180.43;999.90;;;;;;;;;;5010228;28;20030;-47
2021/05/21 01:27:51;;;;;;;1173.30;999.90;;;;;;;;;;5023860;28;20473;-48
2021/05/21 01:30:17;;;;;;;1173.82;999.90;;;;;;;;;;5025126;28;20036;-49
2021/05/21 01:32:46;;;;;;;1174.47;999.90;;;;;;;;;;5017384;28;20477;-48
2021/05/21 01:35:12;;;;;;;1174.75;999.90;;;;;;;;;;5024006;28;20033;-47
2021/05/21 01:37:42;;;;;;;1174.90;999.90;;;;;;;;;;5029971;28;20482;-48
2021/05/21 01:40:09;;;;;;;1170.05;999.90;;;;;;;;;;5032947;28;20025;-48
2021/05/21 01:42:35;;;;;;;1171.88;999.90;;;;;;;;;;5027671;28;20367;-48
2021/05/21 01:45:02;;;;;;;1167.35;999.90;;;;;;;;;;5029578;28;20059;-47
2021/05/21 01:47:28;;;;;;;1168.30;999.90;;;;;;;;;;5021892;28;20072;-50
2021/05/21 01:49:54;;;;;;;1172.20;999.90;;;;;;;;;;5021817;28;20482;-48
2021/05/21 01:52:20;;;;;;;1173.97;999.90;;;;;;;;;;5017277;28;20079;-48
2021/05/21 01:54:46;;;;;;;1167.80;999.90;;;;;;;;;;5024438;28;20113;-50
2021/05/21 01:57:12;;;;;;;1169.18;999.90;;;;;;;;;;5045681;28;20482;-49
2021/05/21 01:59:38;;;;;;;1171.28;999.90;;;;;;;;;;5030181;28;20037;-52
2021/05/21 02:02:06;;;;;;;1169.88;999.90;;;;;;;;;;5026424;28;20021;-47
2021/05/21 02:04:32;;;;;;;1169.28;999.90;;;;;;;;;;5024207;28;20044;-47
2021/05/21 02:06:58;;;;;;;1169.53;999.90;;;;;;;;;;5023679;28;20029;-51
2021/05/21 02:09:24;;;;;;;1167.70;999.90;;;;;;;;;;5021612;28;20080;-48
2021/05/21 02:11:50;;;;;;;1170.47;999.90;;;;;;;;;;5023645;28;20021;-50
2021/05/21 02:14:16;;;;;;;1170.82;999.90;;;;;;;;;;5045108;28;20060;-48
2021/05/21 02:16:42;;;;;;;1172.40;999.90;;;;;;;;;;5013752;28;20050;-51
2021/05/21 02:19:09;;;;;;;1167.22;999.90;;;;;;;;;;5020857;28;20486;-50
2021/05/21 02:21:36;;;;;;;1164.50;999.90;;;;;;;;;;5032104;28;20043;-51
2021/05/21 02:24:05;;;;;;;1169.22;999.90;;;;;;;;;;5015342;28;20018;-48
2021/05/21 02:26:31;;;;;;;1168.18;999.90;;;;;;;;;;5018848;28;20095;-51
2021/05/21 02:28:57;;;;;;;1171.03;999.90;;;;;;;;;;5021498;28;20117;-47
2021/05/21 02:31:23;;;;;;;1168.80;999.90;;;;;;;;;;5032639;28;20030;-49
2021/05/21 02:33:49;;;;;;;1175.25;999.90;;;;;;;;;;5027008;28;20039;-48
2021/05/21 02:36:15;;;;;;;1169.03;999.90;;;;;;;;;;5013214;28;20363;-47
2021/05/21 02:38:41;;;;;;;1169.85;999.90;;;;;;;;;;5013128;28;20036;-48
2021/05/21 02:41:07;;;;;;;1172.13;999.90;;;;;;;;;;5017466;28;20116;-50
2021/05/21 02:43:33;;;;;;;1169.50;999.90;;;;;;;;;;5030679;28;20561;-51
2021/05/21 02:46:00;;;;;;;1170.75;999.90;;;;;;;;;;5023570;28;20033;-49
2021/05/21 02:48:26;;;;;;;1168.20;999.90;;;;;;;;;;5012656;28;20397;-47
2021/05/21 02:50:52;;;;;;;1169.50;999.90;;;;;;;;;;5019121;28;20550;-50
2021/05/21 02:53:18;;;;;;;1169.70;999.90;;;;;;;;;;5022187;28;20033;-46
2021/05/21 02:55:44;;;;;;;1168.80;999.90;;;;;;;;;;5026981;28;20030;-48
2021/05/21 02:58:10;;;;;;;1166.65;999.90;;;;;;;;;;5012106;28;20030;-47
2021/05/21 03:00:36;;;;;;;1167.97;999.90;;;;;;;;;;5027226;28;20041;-47
2021/05/21 03:03:02;;;;;;;1168.25;999.90;;;;;;;;;;5023040;28;20029;-47
2021/05/21 03:05:28;;;;;;;1164.28;999.90;;;;;;;;;;5012673;28;20030;-48
2021/05/21 03:07:55;;;;;;;1167.07;999.90;;;;;;;;;;5012263;28;20037;-50
2021/05/21 03:10:25;;;;;;;1167.75;999.90;;;;;;;;;;5014390;28;20029;-50
2021/05/21 03:12:51;;;;;;;1168.72;999.90;;;;;;;;;;5035206;28;20039;-48
2021/05/21 03:15:17;;;;;;;1165.55;999.90;;;;;;;;;;5014476;28;20072;-49
2021/05/21 03:17:44;;;;;;;1168.13;999.90;;;;;;;;;;5022110;28;20028;-48
2021/05/21 03:20:10;;;;;;;1166.05;999.90;;;;;;;;;;5012025;28;20033;-49
2021/05/21 03:22:36;;;;;;;1165.85;999.90;;;;;;;;;;5029318;28;20090;-49
2021/05/21 03:25:03;;;;;;;1166.93;999.90;;;;;;;;;;5022951;28;20117;-52
2021/05/21 03:27:33;;;;;;;1164.72;999.90;;;;;;;;;;5022780;28;20038;-48
2021/05/21 03:29:59;;;;;;;1167.97;999.90;;;;;;;;;;5029761;28;20083;-47
2021/05/21 03:32:25;;;;;;;1163.97;999.90;;;;;;;;;;5021423;28;20026;-47
2021/05/21 03:34:52;;;;;;;1167.07;999.90;;;;;;;;;;5022201;28;20034;-48
2021/05/21 03:37:18;;;;;;;1164.20;999.90;;;;;;;;;;5021611;28;20030;-49
2021/05/21 03:39:44;;;;;;;1166.75;999.90;;;;;;;;;;5017177;28;20044;-49
2021/05/21 03:42:10;;;;;;;1165.13;999.90;;;;;;;;;;5011779;28;20050;-51
2021/05/21 03:44:36;;;;;;;1165.93;999.90;;;;;;;;;;5011844;28;20033;-51
2021/05/21 03:47:04;;;;;;;1167.18;999.90;;;;;;;;;;5019661;28;20030;-48
2021/05/21 03:49:30;;;;;;;1166.50;999.90;;;;;;;;;;5019307;28;20155;-50
2021/05/21 03:51:57;;;;;;;1167.80;999.90;;;;;;;;;;5011640;28;20025;-52
2021/05/21 03:54:23;;;;;;;1165.35;999.90;;;;;;;;;;5024855;28;20025;-47
2021/05/21 03:56:49;;;;;;;1165.28;999.90;;;;;;;;;;5014482;28;20021;-48
2021/05/21 03:59:15;;;;;;;1166.32;999.90;;;;;;;;;;5025189;28;20096;-48
2021/05/21 04:01:42;;;;;;;1166.90;999.90;;;;;;;;;;5014599;28;20025;-48
2021/05/21 04:04:08;;;;;;;1166.93;999.90;;;;;;;;;;5025610;28;20065;-48
2021/05/21 04:06:34;;;;;;;1168.13;999.90;;;;;;;;;;5012010;28;20034;-49
2021/05/21 04:09:06;;;;;;;1170.05;999.90;;;;;;;;;;5019049;28;20044;-48
2021/05/21 04:11:33;;;;;;;1162.82;999.90;;;;;;;;;;5019823;28;20068;-47
2021/05/21 04:13:59;;;;;;;1166.05;999.90;;;;;;;;;;5026643;28;20421;-47
2021/05/21 04:16:25;;;;;;;1165.97;999.90;;;;;;;;;;5025712;28;20034;-47
2021/05/21 04:18:51;;;;;;;1167.88;999.90;;;;;;;;;;5036175;28;20032;-48
2021/05/21 04:21:18;;;;;;;1165.95;999.90;;;;;;;;;;5030389;28;20040;-49
2021/05/21 04:23:44;;;;;;;1165.47;999.90;;;;;;;;;;5026548;28;20044;-50
2021/05/21 04:26:10;;;;;;;1165.82;999.90;;;;;;;;;;5010885;28;20026;-49
2021/05/21 04:28:36;;;;;;;1166.38;999.90;;;;;;;;;;5041818;28;20040;-51
2021/05/21 04:31:02;;;;;;;1168.65;999.90;;;;;;;;;;5016649;28;20386;-46
2021/05/21 04:33:28;;;;;;;1164.10;999.90;;;;;;;;;;5023323;28;20501;-50
2021/05/21 04:35:54;;;;;;;1170.45;999.90;;;;;;;;;;5010894;28;20116;-47
2021/05/21 04:38:20;;;;;;;1164.28;999.90;;;;;;;;;;5021716;28;20044;-50
2021/05/21 04:40:46;;;;;;;1164.53;999.90;;;;;;;;;;5033030;28;20477;-48
2021/05/21 04:43:12;;;;;;;1163.75;999.90;;;;;;;;;;5027941;28;20476;-50
2021/05/21 04:45:38;;;;;;;1163.97;999.90;;;;;;;;;;5021533;28;20540;-47
2021/05/21 04:48:04;;;;;;;1167.05;999.90;;;;;;;;;;5021588;28;20402;-48
2021/05/21 04:50:30;;;;;;;1168.50;999.90;;;;;;;;;;5019494;28;20025;-48
2021/05/21 04:52:56;;;;;;;1165.75;999.90;;;;;;;;;;5010586;28;20401;-47
2021/05/21 04:55:23;;;;;;;1164.57;999.90;;;;;;;;;;5016866;28;20051;-50
2021/05/21 04:57:50;;;;;;;1164.88;999.90;;;;;;;;;;5020851;28;20029;-48
2021/05/21 05:00:16;;;;;;;1168.10;999.90;;;;;;;;;;5024256;28;20038;-48
2021/05/21 05:02:43;;;;;;;1164.30;999.90;;;;;;;;;;5015456;28;20033;-51
2021/05/21 05:05:09;;;;;;;1164.75;999.90;;;;;;;;;;5023648;28;20026;-48
2021/05/21 05:07:35;;;;;;;1161.85;999.90;;;;;;;;;;5020268;28;20049;-48
2021/05/21 05:10:01;;;;;;;1166.82;999.90;;;;;;;;;;5025172;28;20445;-49
2021/05/21 05:12:27;;;;;;;1163.35;999.90;;;;;;;;;;5030338;28;20029;-49
2021/05/21 05:14:53;;;;;;;1166.25;999.90;;;;;;;;;;5025935;28;20029;-50
2021/05/21 05:17:19;;;;;;;1163.15;999.90;;;;;;;;;;5021641;28;20111;-48
2021/05/21 05:19:45;;;;;;;1166.22;999.90;;;;;;;;;;5025849;28;20072;-48
2021/05/21 05:22:12;;;;;;;1165.45;999.90;;;;;;;;;;5020732;28;20030;-49
2021/05/21 05:24:38;;;;;;;1167.95;999.90;;;;;;;;;;5022976;28;20482;-50
2021/05/21 05:27:04;;;;;;;1165.80;999.90;;;;;;;;;;5023000;28;20030;-48
2021/05/21 05:29:33;;;;;;;1167.80;999.90;;;;;;;;;;5025318;28;20033;-49
2021/05/21 05:32:00;;;;;;;1172.85;999.90;;;;;;;;;;5022740;28;20101;-49
2021/05/21 05:34:26;;;;;;;1165.85;999.90;;;;;;;;;;5021568;28;20532;-50
2021/05/21 05:36:54;;;;;;;1167.03;999.90;;;;;;;;;;5016701;28;20026;-48
2021/05/21 05:39:20;;;;;;;1164.75;999.90;;;;;;;;;;5020326;28;20474;-50
2021/05/21 05:41:49;;;;;;;1167.32;999.90;;;;;;;;;;5025067;28;20096;-49
2021/05/21 05:44:15;;;;;;;1167.78;999.90;;;;;;;;;;5025812;28;20151;-51
2021/05/21 05:46:41;;;;;;;1169.53;999.90;;;;;;;;;;5015250;28;20108;-48
2021/05/21 05:49:07;;;;;;;1165.47;999.90;;;;;;;;;;5026185;28;20368;-49
2021/05/21 05:51:33;;;;;;;1165.85;999.90;;;;;;;;;;5022830;28;20030;-49
2021/05/21 05:53:59;;;;;;;1165.50;999.90;;;;;;;;;;5018151;28;20037;-49
2021/05/21 05:56:25;;;;;;;1165.45;999.90;;;;;;;;;;5021976;28;20482;-48
2021/05/21 05:58:51;;;;;;;1167.70;999.90;;;;;;;;;;5021726;28;20029;-50
2021/05/21 06:01:17;;;;;;;1170.15;999.90;;;;;;;;;;5019036;28;20038;-50
2021/05/21 06:03:43;;;;;;;1169.97;999.90;;;;;;;;;;5021239;28;20313;-49
2021/05/21 06:06:09;;;;;;;1172.20;999.90;;;;;;;;;;5025734;28;20021;-51
2021/05/21 06:08:35;;;;;;;1167.15;999.90;;;;;;;;;;5023624;28;20053;-49
2021/05/21 06:11:01;;;;;;;1166.70;999.90;;;;;;;;;;5029195;28;20411;-50
2021/05/21 06:13:28;;;;;;;1168.57;999.90;;;;;;;;;;5024507;28;20034;-49
2021/05/21 06:15:54;;;;;;;1168.20;999.90;;;;;;;;;;5013274;28;20040;-49
2021/05/21 06:18:20;;;;;;;1167.90;999.90;;;;;;;;;;5023898;28;20034;-48
2021/05/21 06:20:47;;;;;;;1168.88;999.90;;;;;;;;;;5031211;28;20112;-50
2021/05/21 06:23:13;;;;;;;1172.63;999.90;;;;;;;;;;5023109;28;20562;-50
2021/05/21 06:28:19;;;;;;;1165.07;999.90;;;;;;;;;;5023755;28;20516;-49
2021/05/21 06:30:45;;;;;;;1169.60;999.90;;;;;;;;;;5030331;28;20474;-49
2021/05/21 06:33:11;;;;;;;1172.68;999.90;;;;;;;;;;5021996;28;20442;-50
2021/05/21 06:35:37;;;;;;;1169.50;999.90;;;;;;;;;;5021458;28;20061;-50
2021/05/21 06:38:03;;;;;;;1165.88;999.90;;;;;;;;;;5025249;28;20057;-52
2021/05/21 06:40:29;;;;;;;1169.25;999.90;;;;;;;;;;5024631;28;20115;-50
2021/05/21 06:42:55;;;;;;;1170.75;999.90;;;;;;;;;;5015123;28;21289;-50
2021/05/21 06:45:21;;;;;;;1169.30;999.90;;;;;;;;;;5031812;28;20034;-50
2021/05/21 06:47:47;;;;;;;1171.40;999.90;;;;;;;;;;5030221;28;20436;-50
2021/05/21 06:50:13;;;;;;;1171.78;999.90;;;;;;;;;;5022348;28;20111;-48
2021/05/21 06:52:40;;;;;;;1170.38;999.90;;;;;;;;;;5023105;28;20033;-48
2021/05/21 06:55:06;;;;;;;1169.63;999.90;;;;;;;;;;5012683;28;20030;-49
2021/05/21 06:57:33;;;;;;;1167.80;999.90;;;;;;;;;;5030788;28;20041;-52
2021/05/21 06:59:59;;;;;;;1171.15;999.90;;;;;;;;;;5021703;28;20132;-48
2021/05/21 07:02:29;;;;;;;1167.80;999.90;;;;;;;;;;5027916;28;20033;-50
2021/05/21 07:04:55;;;;;;;1167.05;999.90;;;;;;;;;;5015286;28;20371;-52
2021/05/21 07:07:22;;;;;;;1167.60;999.90;;;;;;;;;;5013062;28;20045;-49
2021/05/21 07:09:48;;;;;;;1169.60;999.90;;;;;;;;;;5019568;28;20052;-52
2021/05/21 07:12:14;;;;;;;1170.88;999.90;;;;;;;;;;5024891;28;20033;-49
2021/05/21 07:14:41;;;;;;;1169.57;999.90;;;;;;;;;;5028360;28;20030;-57
2021/05/21 07:17:07;;;;;;;1170.03;999.90;;;;;;;;;;5016070;28;20041;-55
2021/05/21 07:19:33;;;;;;;1168.90;999.90;;;;;;;;;;5034616;28;20029;-52
2021/05/21 07:21:59;;;;;;;1166.32;999.90;;;;;;;;;;5022079;28;20386;-50
2021/05/21 07:24:25;;;;;;;1168.53;999.90;;;;;;;;;;5028716;28;20037;-58
2021/05/21 07:26:51;;;;;;;1171.20;999.90;;;;;;;;;;5020194;28;20120;-49
2021/05/21 07:29:17;;;;;;;1170.88;999.90;;;;;;;;;;5013305;28;20407;-54
2021/05/21 07:31:43;;;;;;;1168.32;999.90;;;;;;;;;;5009219;28;20034;-62
2021/05/21 07:34:09;;;;;;;1165.82;999.90;;;;;;;;;;5007761;28;20032;-61
2021/05/21 07:36:35;;;;;;;1171.97;999.90;;;;;;;;;;5009649;28;20042;-52
2021/05/21 07:39:01;;;;;;;1166.82;999.90;;;;;;;;;;5015397;28;20394;-51
2021/05/21 07:41:28;;;;;;;1169.47;999.90;;;;;;;;;;5002990;28;20033;-50
2021/05/21 07:43:55;;;;;;;1171.35;999.90;;;;;;;;;;5004873;28;20029;-52
2021/05/21 07:46:21;;;;;;;1170.95;999.90;;;;;;;;;;5010218;28;20036;-52
2021/05/21 07:48:49;;;;;;;1168.85;999.90;;;;;;;;;;5011098;28;20022;-53
2021/05/21 07:51:15;;;;;;;1167.38;999.90;;;;;;;;;;5000745;28;20053;-49
2021/05/21 07:53:41;;;;;;;1165.40;999.90;;;;;;;;;;5010002;28;20022;-53
2021/05/21 07:56:07;;;;;;;1166.85;999.90;;;;;;;;;;5011010;28;20415;-51
2021/05/21 07:58:33;;;;;;;1166.25;999.90;;;;;;;;;;5007165;28;20026;-50
2021/05/21 08:00:59;;;;;;;1165.20;999.90;;;;;;;;;;5010358;28;20076;-51
2021/05/21 08:03:25;;;;;;;1165.78;999.90;;;;;;;;;;5004904;28;20085;-49
2021/05/21 08:05:51;;;;;;;1163.95;999.90;;;;;;;;;;5007416;28;20034;-50
2021/05/21 08:08:21;;;;;;;1165.72;999.90;;;;;;;;;;5008417;28;20030;-51
2021/05/21 08:10:51;;;;;;;1169.20;999.90;;;;;;;;;;4994558;28;20126;-53
2021/05/21 08:13:17;;;;;;;1167.80;999.90;;;;;;;;;;5005145;28;20037;-49
2021/05/21 08:15:44;;;;;;;1165.57;999.90;;;;;;;;;;5002806;28;20080;-50
2021/05/21 08:18:10;;;;;;;1165.68;999.90;;;;;;;;;;5006886;28;20104;-60
2021/05/21 08:20:36;;;;;;;1166.10;999.90;;;;;;;;;;5009692;28;20497;-59
2021/05/21 08:23:02;;;;;;;1174.22;999.90;;;;;;;;;;4999160;28;20082;-59
2021/05/21 08:25:28;;;;;;;1166.05;999.90;;;;;;;;;;5003579;28;20048;-59
2021/05/21 08:27:54;;;;;;;1168.45;999.90;;;;;;;;;;5031137;28;20215;-59
2021/05/21 08:30:21;;;;;;;1165.50;999.90;;;;;;;;;;5039720;28;95878;-56
2021/05/21 08:32:49;;;;;;;1167.78;999.90;;;;;;;;;;5042202;28;20049;-58
2021/05/21 08:35:15;;;;;;;1163.80;999.90;;;;;;;;;;5048573;28;20021;-50
2021/05/21 08:37:41;;;;;;;1163.20;999.90;;;;;;;;;;5049392;28;20033;-59
2021/05/21 08:40:08;;;;;;;1164.38;999.90;;;;;;;;;;5047174;28;20198;-56
2021/05/21 08:42:38;;;;;;;1167.00;999.90;;;;;;;;;;5049787;28;20115;-58
2021/05/21 08:45:05;;;;;;;1167.80;999.90;;;;;;;;;;5051776;28;20366;-61
2021/05/21 08:47:34;;;;;;;1167.18;999.90;;;;;;;;;;5047081;28;20086;-59
2021/05/21 08:50:04;;;;;;;1165.43;999.90;;;;;;;;;;5044361;28;20029;-50
2021/05/21 08:52:30;;;;;;;1167.75;999.90;;;;;;;;;;5041518;28;20087;-48
2021/05/21 08:54:57;;;;;;;1167.78;999.90;;;;;;;;;;5040789;28;20037;-52
2021/05/21 08:57:23;;;;;;;1168.18;999.90;;;;;;;;;;5041116;28;20539;-48
2021/05/21 08:59:49;;;;;;;1168.68;999.90;;;;;;;;;;5040397;28;20025;-59
2021/05/21 09:02:17;;;;;;;1165.88;999.90;;;;;;;;;;5048297;28;20495;-65
2021/05/21 09:04:53;;;;;;;1169.80;999.90;;;;;;;;;;5045901;28;61209;-60
2021/05/21 09:07:21;;;;;;;1167.15;999.90;;;;;;;;;;5048165;28;20096;-59
2021/05/21 09:09:47;;;;;;;1165.63;999.90;;;;;;;;;;5044059;28;20037;-63
2021/05/21 09:12:13;;;;;;;1165.80;999.90;;;;;;;;;;5045224;28;20370;-62
2021/05/21 09:14:39;;;;;;;1164.68;999.90;;;;;;;;;;5047146;28;20040;-57
2021/05/21 09:17:05;;;;;;;1166.78;999.90;;;;;;;;;;5047685;28;20100;-48
2021/05/21 09:19:31;;;;;;;1167.80;999.90;;;;;;;;;;5046946;28;20032;-59
2021/05/21 09:21:59;;;;;;;1165.55;999.90;;;;;;;;;;5041666;28;20561;-65
2021/05/21 09:24:27;;;;;;;1166.60;999.90;;;;;;;;;;5049324;28;20510;-61
2021/05/21 09:26:54;;;;;;;1167.30;999.90;;;;;;;;;;5054387;28;20261;-60
2021/05/21 09:31:49;;;;;;;1165.38;999.90;;;;;;;21.69;36.67;99250.53;5058120;27;49053;-59
2021/05/21 09:34:31;;;;;;;1165.22;999.90;;;;;;;21.73;36.19;99257.16;5049438;28;20029;-57
2021/05/21 09:36:56;;;;;;;1165.88;999.90;;;;;;;21.72;36.61;99239.13;5050309;28;20037;-63
2021/05/21 09:39:21;;;;;;;1164.63;999.90;;;;;;;21.88;36.49;99246.53;5059553;28;20090;-59
2021/05/21 09:41:52;;;;;;;1160.00;999.90;;;;;;;21.84;36.12;99248.09;5065156;28;20086;-52
2021/05/21 09:44:18;;;;;;;1166.55;999.90;;;;;;;22.37;35.25;99260.66;5062786;28;20037;-54
2021/05/21 09:46:49;;;;;;;1162.82;999.90;;;;;;;21.90;35.55;99243.56;5066637;28;20041;-55
2021/05/21 09:49:26;;;;;;;1162.45;999.90;;;;;;;21.78;35.24;99253.69;5050660;28;20036;-59
2021/05/21 09:52:44;;;;;;;1162.05;999.90;;;;;;;21.64;36.42;99255.84;5060813;27;20396;-59
2021/05/21 09:55:09;;;;;;;1161.63;999.90;;;;;;;21.65;36.38;99243.03;5059045;28;114779;-54
2021/05/21 09:57:36;;;;;;;1162.50;999.90;;;;;;;21.58;36.71;99235.00;5066433;28;20103;-60
2021/05/21 10:00:10;;;;;;;1158.15;999.90;;;;;;;21.58;36.82;99224.91;5065814;28;20040;-57
2021/05/21 10:02:36;;;;;;;1158.15;999.90;;;;;;;21.62;36.49;99235.34;5066803;28;20044;-55
2021/05/21 10:05:04;;;;;;;1161.72;999.90;;;;;;;21.59;36.59;99236.66;5066411;28;20041;-54
2021/05/21 10:07:29;;;;;;;1161.00;999.90;;;;;;;21.80;36.65;99237.91;5066861;28;20045;-53
2021/05/21 10:09:54;;;;;;;1162.82;999.90;;;;;;;21.74;36.88;99233.41;5063416;28;20104;-56
2021/05/21 10:12:20;;;;;;;1157.45;999.90;;;;;;;21.68;36.50;99213.38;5063994;28;20212;-52
2021/05/21 10:14:49;;;;;;;1157.75;999.90;;;;;;;21.72;36.73;99216.44;5066102;28;20049;-54
2021/05/21 10:17:25;;;;;;;1162.22;999.90;;;;;;;21.75;36.38;99230.44;5063115;28;20101;-54
2021/05/21 10:19:53;;;;;;;1161.63;999.90;;;;;;;21.64;36.19;99198.53;5061705;28;20128;-57
2021/05/21 10:22:32;;;;;;;1159.90;999.90;;;;;;;21.67;35.92;99180.84;5070717;28;20369;-58
2021/05/21 10:25:06;;;;;;;1162.18;999.90;;;;;;;21.66;35.78;99190.91;5067973;28;20127;-52
2021/05/21 10:27:32;;;;;;;1159.93;999.90;;;;;;;21.66;35.59;99190.09;5067906;28;20127;-56
2021/05/21 10:30:01;;;;;;;1160.22;999.90;;;;;;;21.58;35.11;99177.66;5054432;28;20402;-53
2021/05/21 10:32:30;;;;;;;1164.50;999.90;;;;;;;21.63;35.23;99191.41;5065559;28;20060;-59
2021/05/21 10:34:57;;;;;;;1159.03;999.90;;;;;;;21.65;35.32;99183.78;5065326;28;20114;-55
2021/05/21 10:37:41;;;;;;;1160.95;999.90;;;;;;;21.72;35.57;99167.28;5064883;28;20547;-56
2021/05/21 10:40:29;;;;;;;1161.68;999.90;;;;;;;21.75;34.72;99169.53;5064850;28;20063;-57
2021/05/21 10:43:15;;;;;;;1161.72;999.90;;;;;;;21.63;35.80;99166.00;5060567;28;20122;-58
2021/05/21 10:45:53;;;;;;;1161.63;999.90;;;;;;;21.63;35.39;99164.09;5047979;28;20488;-55
2021/05/21 10:48:28;;;;;;;1161.57;999.90;;;;;;;21.63;35.12;99168.72;5061958;28;20029;-56
2021/05/21 10:51:13;;;;;;;1164.72;999.90;;;;;;;21.67;35.42;99164.47;5064876;28;20089;-56
2021/05/21 10:53:43;;;;;;;1159.38;999.90;;;;;;;21.71;35.00;99171.91;5065511;28;20044;-51
2021/05/21 10:56:08;;;;;;;1158.97;999.90;;;;;;;21.76;35.42;99152.06;5056835;28;20033;-55
2021/05/21 10:58:43;;;;;;;1161.07;999.90;;;;;;;21.74;35.79;99159.69;5057471;28;20468;-68
2021/05/21 11:01:16;;;;;;;1162.57;999.90;;;;;;;21.81;35.64;99147.56;5059567;28;20032;-54
2021/05/21 11:03:57;;;;;;;1159.15;999.90;;;;;;;21.72;35.79;99150.91;5052597;28;20037;-56
2021/05/21 11:06:23;;;;;;;1160.00;999.90;;;;;;;21.68;35.51;99156.03;5049722;28;20078;-54
2021/05/21 11:08:49;;;;;;;1160.05;999.90;;;;;;;21.71;35.38;99154.72;5051294;28;20032;-58
2021/05/21 11:11:15;;;;;;;1157.68;999.90;;;;;;;21.73;35.67;99142.47;5053630;28;20492;-54
2021/05/21 11:13:41;;;;;;;1158.88;999.90;;;;;;;21.69;36.46;99154.97;5069706;28;20041;-54
2021/05/21 11:16:13;;;;;;;1159.03;999.90;;;;;;;21.72;35.61;99149.00;5056811;28;20037;-51
2021/05/21 11:18:48;;;;;;;1157.97;999.90;;;;;;;21.73;35.82;99152.56;5051581;28;20087;-56
2021/05/21 11:21:18;;;;;;;1156.90;999.90;;;;;;;21.69;35.71;99146.75;5060696;28;20055;-53
2021/05/21 11:23:46;;;;;;;1154.93;999.90;;;;;;;21.64;35.92;99146.66;5065874;28;20036;-55
2021/05/21 11:26:16;;;;;;;1156.03;999.90;;;;;;;21.64;36.15;99137.63;5073687;28;20093;-51
2021/05/21 11:28:55;;;;;;;1156.53;999.90;;;;;;;21.63;35.73;99152.34;5074022;28;20506;-55
2021/05/21 11:31:22;;;;;;;1156.07;999.90;;;;;;;21.66;35.82;99169.06;5073600;28;20078;-52
2021/05/21 11:33:51;;;;;;;1157.22;999.90;;;;;;;21.67;35.77;99129.81;5073681;28;20076;-54
2021/05/21 11:36:18;;;;;;;1157.28;999.90;;;;;;;21.62;35.75;99148.78;5073877;28;20041;-53
2021/05/21 11:38:44;;;;;;;1159.50;999.90;;;;;;;21.67;35.77;99131.69;5072332;28;20043;-56
2021/05/21 11:41:13;;;;;;;1158.05;999.90;;;;;;;21.65;35.64;99128.38;5061775;28;20452;-56
2021/05/21 11:43:41;;;;;;;1157.10;999.90;;;;;;;21.59;35.56;99124.72;5070251;28;20032;-53
2021/05/21 11:46:13;;;;;;;1158.43;999.90;;;;;;;21.62;35.91;99102.38;5073388;28;20075;-55
2021/05/21 11:48:39;;;;;;;1158.30;999.90;;;;;;;21.70;35.54;99117.56;5073267;28;20060;-53
2021/05/21 11:51:16;;;;;;;1158.57;999.90;;;;;;;21.67;35.31;99127.06;5061452;28;20052;-58
2021/05/21 11:53:54;;;;;;;1159.45;999.90;;;;;;;21.66;35.62;99119.09;5064727;28;20527;-57
2021/05/21 11:56:27;;;;;;;1157.53;999.90;;;;;;;21.65;35.66;99121.00;5071656;28;20028;-57
2021/05/21 11:59:12;;;;;;;1156.95;999.90;;;;;;;21.68;35.40;99106.06;5067692;28;20455;-57
2021/05/21 12:01:43;;;;;;;1156.38;999.90;;;;;;;21.66;35.49;99097.25;5053172;28;20025;-55
2021/05/21 12:04:09;;;;;;;1156.30;999.90;;;;;;;21.64;35.60;99097.50;5053177;28;20033;-55
2021/05/21 12:06:36;;;;;;;1156.65;999.90;;;;;;;21.64;35.45;99081.13;5038587;28;20101;-56
2021/05/21 12:09:06;;;;;;;1154.55;999.90;;;;;;;21.70;35.22;99090.25;5033133;28;20033;-55
2021/05/21 12:11:31;;;;;;;1154.25;999.90;;;;;;;21.73;35.67;99081.56;5050357;28;20024;-54
2021/05/21 12:14:08;;;;;;;1157.07;999.90;;;;;;;21.76;35.07;99098.28;5064627;28;20166;-58
2021/05/21 12:16:35;;;;;;;1157.88;999.90;;;;;;;21.76;35.29;99102.91;5070284;28;20071;-58
2021/05/21 12:19:02;;;;;;;1155.75;999.90;;;;;;;21.73;35.37;99089.75;5041190;28;20029;-53
2021/05/21 12:21:39;;;;;;;1158.03;999.90;;;;;;;21.74;35.52;99115.97;5050921;28;20123;-55
2021/05/21 12:24:06;;;;;;;1153.07;999.90;;;;;;;21.71;35.87;99094.63;5045035;28;20048;-53
2021/05/21 12:26:34;;;;;;;1155.72;999.90;;;;;;;21.74;36.11;99089.50;5052074;28;20051;-56
2021/05/21 12:29:01;;;;;;;1157.63;999.90;;;;;;;21.73;35.59;99081.56;5050300;28;20045;-53
2021/05/21 12:31:29;;;;;;;1155.90;999.90;;;;;;;21.68;35.33;99073.28;5054878;28;20443;-52
2021/05/21 12:33:56;;;;;;;1158.30;999.90;;;;;;;21.72;35.34;99090.81;5050555;28;20032;-56
2021/05/21 12:36:24;;;;;;;1156.60;999.90;;;;;;;21.71;36.12;99078.25;5050202;28;20318;-53
2021/05/21 12:38:56;;;;;;;1155.75;999.90;;;;;;;21.70;35.40;99074.69;5059245;28;20032;-58
2021/05/21 12:41:30;;;;;;;1154.05;999.90;;;;;;;21.71;35.94;99076.34;5051388;28;20037;-58
2021/05/21 12:44:14;;;;;;;1155.60;999.90;;;;;;;21.75;35.93;99069.31;5045671;28;20028;-53
2021/05/21 12:46:46;;;;;;;1156.05;999.90;;;;;;;21.73;35.64;99074.19;5041319;28;20116;-55
2021/05/21 12:49:13;;;;;;;1156.50;999.90;;;;;;;21.74;35.84;99072.28;5052624;28;20095;-54
2021/05/21 12:51:39;;;;;;;1153.75;999.90;;;;;;;21.72;36.21;99099.84;5051780;28;20043;-57
2021/05/21 12:54:25;;;;;;;1155.45;999.90;;;;;;;21.74;36.19;99081.31;5051593;28;20041;-58
2021/05/21 12:57:18;;;;;;;1153.40;999.90;;;;;;;21.68;35.86;99079.56;5045612;28;20040;-56
2021/05/21 12:59:55;;;;;;;1155.32;999.90;;;;;;;21.77;35.79;99083.53;5045574;28;20076;-58